createdAt,value
2022-10-25T00:01:45.211Z,14.50
2022-10-25T00:03:17.209Z,14.50
2022-10-25T00:04:48.962Z,14.50
2022-10-25T00:06:20.566Z,14.50
2022-10-25T00:07:52.215Z,14.50
2022-10-25T00:09:23.843Z,14.50
2022-10-25T00:10:55.447Z,14.50
2022-10-25T00:12:27.185Z,14.50
2022-10-25T00:14:01.736Z,14.50
2022-10-25T00:15:33.530Z,14.50
2022-10-25T00:17:05.157Z,14.50
2022-10-25T00:18:36.824Z,14.50
2022-10-25T00:20:09.463Z,14.50
2022-10-25T00:21:41.294Z,14.50
2022-10-25T00:23:14.727Z,14.50
2022-10-25T00:24:46.335Z,14.50
2022-10-25T00:26:18.613Z,14.50
2022-10-25T00:27:50.212Z,14.50
2022-10-25T00:31:02.201Z,14.50
2022-10-25T00:32:34.660Z,14.50
2022-10-25T00:34:06.304Z,14.50
2022-10-25T00:35:37.957Z,14.50
2022-10-25T00:37:09.665Z,14.50
2022-10-25T00:38:42.056Z,14.50
2022-10-25T00:40:13.844Z,14.50
2022-10-25T00:41:45.622Z,14.50
2022-10-25T00:43:37.454Z,14.50
2022-10-25T00:45:23.761Z,14.50
2022-10-25T00:46:55.587Z,14.50
2022-10-25T00:48:28.441Z,14.50
2022-10-25T00:50:02.962Z,14.50
2022-10-25T00:51:37.218Z,14.50
2022-10-25T00:53:13.805Z,14.50
2022-10-25T00:54:52.457Z,14.50
2022-10-25T00:56:27.845Z,14.50
2022-10-25T00:58:05.154Z,14.50
2022-10-25T00:59:37.758Z,14.50
2022-10-25T01:01:10.365Z,14.50
2022-10-25T01:02:42.645Z,14.50
2022-10-25T01:04:16.834Z,14.50
2022-10-25T01:05:49.813Z,14.60
2022-10-25T01:07:21.466Z,14.50
2022-10-25T01:08:55.087Z,14.50
2022-10-25T01:10:26.936Z,14.50
2022-10-25T01:11:58.761Z,14.50
2022-10-25T01:13:30.502Z,14.50
2022-10-25T01:15:02.841Z,14.50
2022-10-25T01:17:10.833Z,14.50
2022-10-25T01:19:09.987Z,14.50
2022-10-25T01:21:38.761Z,14.50
2022-10-25T01:23:28.451Z,14.50
2022-10-25T01:25:21.536Z,14.50
2022-10-25T01:27:11.787Z,14.50
2022-10-25T01:29:04.431Z,14.50
2022-10-25T01:30:53.315Z,14.50
2022-10-25T01:32:40.338Z,14.50
2022-10-25T01:34:31.890Z,14.50
2022-10-25T01:36:25.417Z,14.50
2022-10-25T01:38:06.667Z,14.50
2022-10-25T01:39:47.912Z,14.50
2022-10-25T01:41:32.068Z,14.50
2022-10-25T01:43:21.808Z,14.50
2022-10-25T01:45:19.642Z,14.50
2022-10-25T01:47:01.468Z,14.50
2022-10-25T01:48:39.287Z,14.50
2022-10-25T01:50:24.556Z,14.50
2022-10-25T01:51:56.191Z,14.50
2022-10-25T01:53:27.912Z,14.40
2022-10-25T01:54:59.580Z,14.50
2022-10-25T01:56:41.740Z,14.50
2022-10-25T01:59:09.216Z,14.50
2022-10-25T02:01:02.468Z,14.40
2022-10-25T02:02:54.316Z,14.40
2022-10-25T02:04:47.421Z,14.50
2022-10-25T02:06:29.813Z,14.40
2022-10-25T02:08:25.467Z,14.40
2022-10-25T02:10:10.776Z,14.40
2022-10-25T02:11:42.394Z,14.40
2022-10-25T02:13:27.001Z,14.40
2022-10-25T02:15:10.270Z,14.50
2022-10-25T02:16:50.552Z,14.40
2022-10-25T02:18:25.907Z,14.40
2022-10-25T02:20:00.618Z,14.40
2022-10-25T02:21:34.659Z,14.40
2022-10-25T02:23:06.630Z,14.40
2022-10-25T02:24:41.903Z,14.40
2022-10-25T02:26:15.434Z,14.40
2022-10-25T02:27:50.613Z,14.40
2022-10-25T02:29:23.863Z,14.40
2022-10-25T02:30:57.098Z,14.40
2022-10-25T02:32:28.918Z,14.40
2022-10-25T02:34:00.722Z,14.40
2022-10-25T02:35:32.471Z,14.40
2022-10-25T02:37:04.150Z,14.40
2022-10-25T02:38:36.344Z,14.40
2022-10-25T02:40:09.851Z,14.40
2022-10-25T02:41:41.587Z,14.40
2022-10-25T02:43:13.282Z,14.40
2022-10-25T02:44:44.891Z,14.40
2022-10-25T02:46:20.037Z,14.40
2022-10-25T02:47:51.651Z,14.40
2022-10-25T02:49:23.319Z,14.40
2022-10-25T02:50:54.964Z,14.40
2022-10-25T02:52:26.616Z,14.40
2022-10-25T02:53:58.732Z,14.40
2022-10-25T02:55:30.423Z,14.40
2022-10-25T02:57:02.067Z,14.40
2022-10-25T02:58:37.315Z,14.40
2022-10-25T03:00:09.760Z,14.40
2022-10-25T03:01:41.499Z,14.40
2022-10-25T03:03:13.104Z,14.40
2022-10-25T03:04:44.832Z,14.40
2022-10-25T03:06:17.209Z,14.40
2022-10-25T03:07:48.856Z,14.40
2022-10-25T03:09:20.526Z,14.40
2022-10-25T03:10:53.000Z,14.40
2022-10-25T03:12:24.629Z,14.40
2022-10-25T03:13:56.267Z,14.50
2022-10-25T03:15:27.945Z,14.50
2022-10-25T03:16:59.594Z,14.40
2022-10-25T03:18:31.606Z,14.40
2022-10-25T03:20:03.446Z,14.40
2022-10-25T03:21:37.606Z,14.40
2022-10-25T03:23:11.952Z,14.40
2022-10-25T03:24:43.620Z,14.40
2022-10-25T03:26:15.208Z,14.40
2022-10-25T03:27:47.068Z,14.40
2022-10-25T03:29:19.108Z,14.40
2022-10-25T03:30:50.716Z,14.40
2022-10-25T03:32:22.373Z,14.40
2022-10-25T03:33:54.107Z,14.40
2022-10-25T03:35:26.176Z,14.40
2022-10-25T03:36:58.566Z,14.40
2022-10-25T03:38:30.206Z,14.40
2022-10-25T03:40:01.959Z,14.40
2022-10-25T03:41:33.619Z,14.40
2022-10-25T03:43:05.224Z,14.40
2022-10-25T03:44:39.477Z,14.40
2022-10-25T03:46:11.113Z,14.40
2022-10-25T03:47:42.801Z,14.40
2022-10-25T03:49:14.385Z,14.40
2022-10-25T03:50:46.077Z,14.40
2022-10-25T03:52:17.734Z,14.40
2022-10-25T03:53:50.525Z,14.40
2022-10-25T03:55:22.204Z,14.40
2022-10-25T03:56:53.834Z,14.40
2022-10-25T03:58:25.451Z,14.40
2022-10-25T03:59:57.787Z,14.40
2022-10-25T04:01:29.546Z,14.40
2022-10-25T04:03:02.842Z,14.40
2022-10-25T04:04:34.594Z,14.40
2022-10-25T04:06:06.826Z,14.40
2022-10-25T04:07:38.430Z,14.40
2022-10-25T04:09:10.107Z,14.40
2022-10-25T04:10:41.750Z,14.40
2022-10-25T04:12:13.465Z,14.40
2022-10-25T04:13:45.098Z,14.40
2022-10-25T04:15:16.767Z,14.40
2022-10-25T04:16:48.426Z,14.40
2022-10-25T04:18:20.054Z,14.30
2022-10-25T04:19:51.700Z,14.40
2022-10-25T04:21:23.704Z,14.40
2022-10-25T04:22:58.574Z,14.40
2022-10-25T04:24:30.671Z,14.40
2022-10-25T04:26:02.324Z,14.40
2022-10-25T04:27:33.932Z,14.40
2022-10-25T04:29:05.960Z,14.30
2022-10-25T04:30:38.770Z,14.40
2022-10-25T04:32:10.745Z,14.40
2022-10-25T04:33:45.170Z,14.40
2022-10-25T04:35:19.775Z,14.40
2022-10-25T04:36:51.374Z,14.40
2022-10-25T04:38:24.163Z,14.30
2022-10-25T04:39:55.774Z,14.30
2022-10-25T04:41:27.407Z,14.40
2022-10-25T04:43:02.197Z,14.30
2022-10-25T04:44:33.914Z,14.30
2022-10-25T04:46:05.710Z,14.30
2022-10-25T04:47:37.507Z,14.30
2022-10-25T04:49:12.851Z,14.30
2022-10-25T04:50:45.218Z,14.30
2022-10-25T04:52:17.004Z,14.30
2022-10-25T04:53:48.764Z,14.30
2022-10-25T04:55:20.418Z,14.30
2022-10-25T04:56:52.046Z,14.30
2022-10-25T04:58:28.759Z,14.30
2022-10-25T05:00:03.638Z,14.30
2022-10-25T05:01:35.425Z,14.30
2022-10-25T05:03:10.846Z,14.30
2022-10-25T05:04:44.914Z,14.30
2022-10-25T05:06:28.099Z,14.30
2022-10-25T05:07:59.698Z,14.30
2022-10-25T05:09:31.312Z,14.30
2022-10-25T05:11:03.286Z,14.30
2022-10-25T05:12:35.059Z,14.30
2022-10-25T05:14:06.711Z,14.30
2022-10-25T05:15:38.328Z,14.30
2022-10-25T05:17:09.941Z,14.30
2022-10-25T05:18:43.977Z,14.30
2022-10-25T05:20:15.795Z,14.30
2022-10-25T05:21:47.695Z,14.30
2022-10-25T05:23:19.524Z,14.30
2022-10-25T05:24:51.232Z,14.20
2022-10-25T05:26:22.937Z,14.20
2022-10-25T05:27:54.524Z,14.20
2022-10-25T05:29:26.204Z,14.20
2022-10-25T05:30:57.888Z,14.20
2022-10-25T05:32:30.164Z,14.20
2022-10-25T05:34:02.111Z,14.20
2022-10-25T05:35:33.790Z,14.20
2022-10-25T05:37:05.604Z,14.20
2022-10-25T05:38:37.943Z,14.20
2022-10-25T05:40:10.332Z,14.20
2022-10-25T05:41:42.661Z,14.20
2022-10-25T05:43:14.314Z,14.20
2022-10-25T05:44:45.917Z,14.20
2022-10-25T05:46:22.870Z,14.20
2022-10-25T05:47:54.470Z,14.20
2022-10-25T05:49:26.147Z,14.20
2022-10-25T05:51:33.439Z,14.20
2022-10-25T05:53:06.140Z,14.10
2022-10-25T05:54:37.832Z,14.20
2022-10-25T05:56:09.488Z,14.20
2022-10-25T05:57:41.129Z,14.20
2022-10-25T05:59:14.576Z,14.10
2022-10-25T06:00:46.335Z,14.10
2022-10-25T06:02:18.151Z,14.10
2022-10-25T06:03:51.171Z,14.10
2022-10-25T06:05:22.843Z,14.10
2022-10-25T06:06:54.511Z,14.10
2022-10-25T06:08:26.183Z,14.10
2022-10-25T06:09:58.021Z,14.10
2022-10-25T06:11:30.428Z,14.10
2022-10-25T06:13:02.054Z,14.20
2022-10-25T06:14:33.681Z,14.10
2022-10-25T06:16:07.741Z,14.10
2022-10-25T06:17:39.353Z,14.10
2022-10-25T06:19:11.028Z,14.10
2022-10-25T06:20:42.642Z,14.10
2022-10-25T06:22:14.294Z,14.10
2022-10-25T06:23:46.849Z,14.10
2022-10-25T06:25:18.484Z,14.10
2022-10-25T06:26:50.112Z,14.10
2022-10-25T06:28:21.780Z,14.00
2022-10-25T06:29:53.452Z,14.00
2022-10-25T06:31:25.289Z,14.00
2022-10-25T06:32:57.677Z,14.00
2022-10-25T06:34:29.873Z,14.00
2022-10-25T06:36:03.889Z,14.00
2022-10-25T06:37:35.562Z,14.00
2022-10-25T06:39:09.559Z,14.00
2022-10-25T06:40:41.161Z,14.00
2022-10-25T06:42:12.838Z,14.00
2022-10-25T06:43:44.763Z,14.00
2022-10-25T06:45:16.458Z,14.00
2022-10-25T06:48:39.878Z,14.00
2022-10-25T06:50:11.485Z,14.00
2022-10-25T06:51:43.138Z,14.00
2022-10-25T06:53:15.324Z,14.00
2022-10-25T06:54:46.957Z,14.00
2022-10-25T06:56:18.555Z,14.00
2022-10-25T06:57:50.189Z,14.00
2022-10-25T06:59:21.909Z,14.00
2022-10-25T07:00:53.578Z,14.00
2022-10-25T07:02:25.421Z,14.00
2022-10-25T07:03:57.167Z,14.00
2022-10-25T07:05:28.770Z,14.00
2022-10-25T07:07:00.547Z,14.10
2022-10-25T07:08:36.828Z,14.00
2022-10-25T07:10:08.777Z,14.00
2022-10-25T07:11:40.766Z,14.00
2022-10-25T07:13:12.355Z,14.00
2022-10-25T07:14:44.471Z,14.00
2022-10-25T07:16:18.573Z,14.00
2022-10-25T07:17:50.295Z,14.00
2022-10-25T07:19:23.689Z,14.00
2022-10-25T07:20:59.527Z,14.00
2022-10-25T07:22:31.148Z,14.00
2022-10-25T07:24:03.177Z,14.00
2022-10-25T07:25:34.798Z,14.00
2022-10-25T07:27:06.522Z,14.00
2022-10-25T07:28:38.498Z,14.00
2022-10-25T07:30:10.689Z,14.00
2022-10-25T07:31:44.156Z,14.00
2022-10-25T07:33:18.374Z,14.00
2022-10-25T07:34:50.042Z,14.00
2022-10-25T07:36:21.740Z,14.00
2022-10-25T07:37:53.337Z,14.10
2022-10-25T07:39:24.979Z,14.10
2022-10-25T07:40:59.931Z,14.10
2022-10-25T07:42:31.644Z,14.10
2022-10-25T07:44:03.462Z,14.10
2022-10-25T07:45:36.268Z,14.10
2022-10-25T07:47:07.917Z,14.10
2022-10-25T07:48:39.630Z,14.10
2022-10-25T07:50:11.325Z,14.10
2022-10-25T07:51:43.011Z,14.10
2022-10-25T07:53:14.890Z,14.10
2022-10-25T07:54:46.530Z,14.10
2022-10-25T07:56:23.099Z,14.10
2022-10-25T07:58:01.143Z,14.10
2022-10-25T07:59:33.096Z,14.10
2022-10-25T08:01:09.223Z,14.10
2022-10-25T08:02:41.014Z,14.20
2022-10-25T08:04:12.661Z,14.10
2022-10-25T08:05:46.425Z,14.10
2022-10-25T08:07:18.037Z,14.20
2022-10-25T08:08:50.060Z,14.20
2022-10-25T08:10:22.101Z,14.20
2022-10-25T08:11:54.143Z,14.20
2022-10-25T08:13:25.778Z,14.20
2022-10-25T08:14:57.444Z,14.20
2022-10-25T08:16:29.538Z,14.20
2022-10-25T08:18:01.907Z,14.20
2022-10-25T08:19:33.569Z,14.30
2022-10-25T08:21:05.451Z,14.30
2022-10-25T08:22:37.097Z,14.30
2022-10-25T08:24:09.023Z,14.30
2022-10-25T08:25:40.833Z,14.30
2022-10-25T08:27:12.662Z,14.30
2022-10-25T08:28:44.326Z,14.30
2022-10-25T08:30:16.062Z,14.30
2022-10-25T08:31:47.689Z,14.30
2022-10-25T08:33:19.348Z,14.40
2022-10-25T08:34:50.998Z,14.40
2022-10-25T08:36:24.054Z,14.40
2022-10-25T08:37:55.733Z,14.40
2022-10-25T08:39:27.370Z,14.40
2022-10-25T08:41:11.826Z,14.40
2022-10-25T08:43:07.579Z,14.40
2022-10-25T08:44:56.766Z,14.50
2022-10-25T08:47:09.960Z,14.50
2022-10-25T08:48:46.279Z,14.50
2022-10-25T08:50:26.035Z,14.50
2022-10-25T08:51:59.240Z,14.50
2022-10-25T08:53:42.218Z,14.50
2022-10-25T08:55:23.164Z,14.60
2022-10-25T08:57:15.557Z,14.60
2022-10-25T08:58:53.295Z,14.60
2022-10-25T09:00:28.966Z,14.60
2022-10-25T09:02:00.876Z,14.60
2022-10-25T09:03:33.778Z,14.60
2022-10-25T09:05:14.136Z,14.60
2022-10-25T09:06:51.728Z,14.70
2022-10-25T09:08:41.842Z,14.70
2022-10-25T09:10:30.803Z,14.70
2022-10-25T09:12:14.114Z,14.70
2022-10-25T09:13:56.772Z,14.70
2022-10-25T09:16:09.577Z,14.70
2022-10-25T09:17:49.870Z,14.70
2022-10-25T09:19:48.786Z,14.80
2022-10-25T09:21:49.806Z,14.80
2022-10-25T09:23:32.563Z,14.80
2022-10-25T09:25:13.928Z,14.80
2022-10-25T09:27:08.347Z,14.80
2022-10-25T09:28:55.644Z,14.80
2022-10-25T09:30:35.380Z,14.90
2022-10-25T09:32:25.458Z,14.90
2022-10-25T09:34:07.453Z,14.90
2022-10-25T09:35:46.061Z,14.90
2022-10-25T09:37:24.980Z,14.80
2022-10-25T09:39:01.960Z,14.80
2022-10-25T09:40:47.598Z,14.80
2022-10-25T09:42:30.540Z,14.90
2022-10-25T09:44:23.686Z,14.90
2022-10-25T09:45:59.943Z,14.80
2022-10-25T09:47:52.695Z,14.90
2022-10-25T09:49:45.887Z,14.90
2022-10-25T09:51:32.232Z,14.90
2022-10-25T09:53:16.678Z,14.90
2022-10-25T09:55:11.579Z,14.80
2022-10-25T09:56:43.261Z,14.80
2022-10-25T09:58:32.501Z,14.80
2022-10-25T10:00:05.140Z,14.90
2022-10-25T10:01:43.644Z,14.90
2022-10-25T10:03:15.565Z,14.90
2022-10-25T10:04:47.263Z,14.80
2022-10-25T10:06:28.586Z,14.80
2022-10-25T10:08:00.304Z,14.90
2022-10-25T10:09:34.920Z,14.80
2022-10-25T10:11:15.678Z,14.80
2022-10-25T10:14:40.957Z,14.90
2022-10-25T10:16:17.983Z,14.80
2022-10-25T10:18:19.315Z,14.80
2022-10-25T10:20:17.741Z,14.80
2022-10-25T10:21:55.749Z,14.80
2022-10-25T10:23:52.013Z,14.90
2022-10-25T10:25:28.578Z,14.90
2022-10-25T10:27:02.840Z,14.90
2022-10-25T10:28:35.660Z,14.90
2022-10-25T10:30:09.255Z,14.90
2022-10-25T10:31:44.522Z,14.90
2022-10-25T10:33:17.872Z,15.00
2022-10-25T10:34:55.370Z,15.00
2022-10-25T10:36:29.265Z,15.00
2022-10-25T10:38:19.744Z,15.00
2022-10-25T10:39:54.270Z,15.00
2022-10-25T10:41:28.850Z,15.00
2022-10-25T10:43:04.565Z,15.00
2022-10-25T10:44:36.228Z,15.00
2022-10-25T10:46:16.186Z,15.00
2022-10-25T10:47:50.539Z,15.10
2022-10-25T10:49:36.150Z,15.00
2022-10-25T10:51:15.406Z,15.00
2022-10-25T10:53:01.010Z,15.00
2022-10-25T10:54:47.794Z,15.00
2022-10-25T10:56:23.132Z,15.10
2022-10-25T10:58:00.307Z,15.10
2022-10-25T10:59:43.526Z,15.10
2022-10-25T11:01:29.642Z,15.10
2022-10-25T11:03:01.441Z,15.10
2022-10-25T11:04:47.512Z,15.10
2022-10-25T11:06:29.002Z,15.10
2022-10-25T11:08:03.505Z,15.10
2022-10-25T11:09:35.156Z,15.10
2022-10-25T11:11:21.600Z,15.10
2022-10-25T11:13:17.095Z,15.10
2022-10-25T11:14:48.722Z,15.10
2022-10-25T11:16:40.565Z,15.10
2022-10-25T11:18:13.684Z,15.10
2022-10-25T11:20:03.811Z,15.10
2022-10-25T11:22:15.678Z,15.10
2022-10-25T11:24:08.462Z,15.10
2022-10-25T11:25:48.849Z,15.10
2022-10-25T11:27:53.053Z,15.10
2022-10-25T11:29:46.362Z,15.10
2022-10-25T11:31:46.206Z,15.10
2022-10-25T11:33:23.138Z,15.10
2022-10-25T11:35:03.706Z,15.20
2022-10-25T11:37:17.150Z,15.10
2022-10-25T11:39:03.839Z,15.20
2022-10-25T11:40:55.264Z,15.20
2022-10-25T11:43:01.180Z,15.20
2022-10-25T11:44:50.613Z,15.20
2022-10-25T11:46:47.162Z,15.30
2022-10-25T11:48:43.322Z,15.20
2022-10-25T11:50:36.232Z,15.30
2022-10-25T11:52:19.241Z,15.20
2022-10-25T11:54:08.908Z,15.20
2022-10-25T11:55:54.881Z,15.20
2022-10-25T11:57:50.956Z,15.20
2022-10-25T12:00:00.891Z,15.30
2022-10-25T12:01:35.650Z,15.30
2022-10-25T12:03:17.349Z,15.30
2022-10-25T12:05:27.840Z,15.30
2022-10-25T12:07:02.148Z,15.30
2022-10-25T12:08:54.046Z,15.30
2022-10-25T12:10:39.883Z,15.30
2022-10-25T12:12:16.387Z,15.30
2022-10-25T12:13:53.017Z,15.40
2022-10-25T12:15:39.633Z,15.40
2022-10-25T12:17:32.342Z,15.40
2022-10-25T12:19:22.907Z,15.40
2022-10-25T12:20:55.685Z,15.40
2022-10-25T12:22:43.920Z,15.40
2022-10-25T12:24:23.721Z,15.40
2022-10-25T12:26:25.467Z,15.50
2022-10-25T12:28:06.519Z,15.50
2022-10-25T12:29:42.379Z,15.50
2022-10-25T12:31:21.612Z,15.50
2022-10-25T12:33:02.375Z,15.50
2022-10-25T12:34:47.799Z,15.50
2022-10-25T12:36:36.213Z,15.50
2022-10-25T12:38:20.655Z,15.60
2022-10-25T12:39:52.620Z,15.60
2022-10-25T12:41:45.403Z,15.60
2022-10-25T12:43:26.997Z,15.60
2022-10-25T12:45:29.013Z,15.60
2022-10-25T12:47:47.241Z,15.60
2022-10-25T12:49:27.523Z,15.60
2022-10-25T12:51:18.874Z,15.60
2022-10-25T12:52:59.552Z,15.60
2022-10-25T12:55:02.848Z,15.60
2022-10-25T12:56:53.245Z,15.60
2022-10-25T12:58:37.027Z,15.60
2022-10-25T13:00:12.176Z,15.60
2022-10-25T13:02:14.731Z,15.50
2022-10-25T13:04:04.101Z,15.60
2022-10-25T13:06:19.853Z,15.60
2022-10-25T13:07:58.339Z,15.60
2022-10-25T13:09:32.522Z,15.60
2022-10-25T13:11:07.126Z,15.60
2022-10-25T13:12:39.506Z,15.60
2022-10-25T13:14:20.014Z,15.60
2022-10-25T13:15:55.026Z,15.60
2022-10-25T13:17:26.710Z,15.50
2022-10-25T13:19:25.881Z,15.60
2022-10-25T13:21:14.598Z,15.60
2022-10-25T13:22:46.278Z,15.50
2022-10-25T13:24:38.286Z,15.60
2022-10-25T13:26:21.465Z,15.60
2022-10-25T13:28:11.006Z,15.60
2022-10-25T13:30:23.233Z,15.60
2022-10-25T13:32:08.791Z,15.60
2022-10-25T13:33:43.392Z,15.50
2022-10-25T13:35:38.128Z,15.50
2022-10-25T13:37:31.291Z,15.50
2022-10-25T13:39:05.263Z,15.50
2022-10-25T13:40:38.408Z,15.50
2022-10-25T13:42:15.789Z,15.50
2022-10-25T13:44:02.001Z,15.50
2022-10-25T13:45:43.646Z,15.50
2022-10-25T13:47:42.819Z,15.60
2022-10-25T13:49:35.989Z,15.50
2022-10-25T13:51:12.949Z,15.50
2022-10-25T13:53:05.114Z,15.50
2022-10-25T13:54:42.476Z,15.50
2022-10-25T13:56:23.340Z,15.50
2022-10-25T13:57:57.581Z,15.50
2022-10-25T13:59:59.641Z,15.50
2022-10-25T14:01:31.950Z,15.50
2022-10-25T14:03:08.111Z,15.50
2022-10-25T14:04:39.910Z,15.50
2022-10-25T14:06:21.831Z,15.50
2022-10-25T14:07:54.651Z,15.50
2022-10-25T14:09:33.520Z,15.50
2022-10-25T14:11:12.588Z,15.50
2022-10-25T14:12:48.690Z,15.50
2022-10-25T14:14:31.287Z,15.50
2022-10-25T14:16:04.861Z,15.50
2022-10-25T14:17:44.282Z,15.50
2022-10-25T14:19:21.655Z,15.60
2022-10-25T14:20:58.004Z,15.50
2022-10-25T14:22:55.510Z,15.50
2022-10-25T14:24:27.660Z,15.50
2022-10-25T14:26:02.007Z,15.50
2022-10-25T14:27:37.213Z,15.60
2022-10-25T14:29:18.608Z,15.50
2022-10-25T14:31:07.295Z,15.50
2022-10-25T14:32:39.123Z,15.50
2022-10-25T14:34:24.975Z,15.50
2022-10-25T14:36:05.792Z,15.50
2022-10-25T14:37:42.233Z,15.50
2022-10-25T14:39:17.955Z,15.50
2022-10-25T14:41:03.557Z,15.50
2022-10-25T14:42:35.257Z,15.50
2022-10-25T14:44:23.750Z,15.50
2022-10-25T14:46:05.548Z,15.50
2022-10-25T14:47:38.140Z,15.50
2022-10-25T14:49:09.915Z,15.50
2022-10-25T14:50:41.579Z,15.50
2022-10-25T14:52:13.275Z,15.50
2022-10-25T14:54:24.696Z,15.50
2022-10-25T14:56:04.775Z,15.50
2022-10-25T14:57:36.920Z,15.50
2022-10-25T14:59:40.248Z,15.50
2022-10-25T15:01:20.562Z,15.50
2022-10-25T15:02:57.799Z,15.50
2022-10-25T15:04:40.412Z,15.50
2022-10-25T15:06:14.209Z,15.50
2022-10-25T15:07:47.062Z,15.50
2022-10-25T15:11:18.583Z,15.50
2022-10-25T15:12:52.932Z,15.50
2022-10-25T15:14:28.172Z,15.50
2022-10-25T15:16:02.761Z,15.50
2022-10-25T15:17:35.496Z,15.50
2022-10-25T15:19:09.919Z,15.50
2022-10-25T15:20:41.633Z,15.50
2022-10-25T15:22:15.785Z,15.60
2022-10-25T15:24:07.365Z,15.50
2022-10-25T15:25:40.277Z,15.50
2022-10-25T15:27:39.140Z,15.50
2022-10-25T15:29:10.832Z,15.50
2022-10-25T15:31:04.014Z,15.50
2022-10-25T15:32:36.053Z,15.50
2022-10-25T15:34:12.655Z,15.50
2022-10-25T15:35:59.434Z,15.40
2022-10-25T15:37:31.276Z,15.40
2022-10-25T15:39:17.175Z,15.40
2022-10-25T15:40:49.558Z,15.50
2022-10-25T15:42:23.878Z,15.40
2022-10-25T15:43:55.583Z,15.50
2022-10-25T15:45:27.252Z,15.50
2022-10-25T15:46:58.998Z,15.50
2022-10-25T15:48:30.779Z,15.40
2022-10-25T15:50:04.746Z,15.40
2022-10-25T15:51:40.111Z,15.50
2022-10-25T15:53:12.385Z,15.40
2022-10-25T15:54:44.603Z,15.50
2022-10-25T15:56:19.125Z,15.40
2022-10-25T15:57:51.428Z,15.50
2022-10-25T15:59:23.096Z,15.40
2022-10-25T16:00:56.469Z,15.40
2022-10-25T16:02:28.434Z,15.40
2022-10-25T16:04:00.235Z,15.40
2022-10-25T16:05:34.563Z,15.50
2022-10-25T16:07:09.091Z,15.50
2022-10-25T16:08:41.653Z,15.40
2022-10-25T16:10:13.398Z,15.40
2022-10-25T16:11:50.668Z,15.40
2022-10-25T16:13:25.894Z,15.40
2022-10-25T16:14:57.707Z,15.40
2022-10-25T16:16:45.350Z,15.40
2022-10-25T16:18:17.262Z,15.40
2022-10-25T16:19:48.938Z,15.40
2022-10-25T16:21:21.265Z,15.40
2022-10-25T16:22:55.800Z,15.30
2022-10-25T16:24:27.469Z,15.30
2022-10-25T16:25:59.173Z,15.30
2022-10-25T16:27:30.795Z,15.30
2022-10-25T16:29:03.127Z,15.30
2022-10-25T16:30:36.507Z,15.20
2022-10-25T16:32:10.060Z,15.20
2022-10-25T16:33:41.740Z,15.20
2022-10-25T16:35:13.971Z,15.10
2022-10-25T16:36:47.029Z,15.10
2022-10-25T16:38:18.708Z,15.10
2022-10-25T16:39:50.344Z,15.10
2022-10-25T16:41:24.568Z,15.10
2022-10-25T16:42:58.241Z,15.10
2022-10-25T16:44:29.840Z,15.00
2022-10-25T16:46:01.444Z,15.00
2022-10-25T16:47:33.227Z,15.00
2022-10-25T16:49:05.249Z,15.00
2022-10-25T16:50:36.947Z,15.00
2022-10-25T16:52:08.613Z,15.00
2022-10-25T16:53:40.831Z,14.90
2022-10-25T16:55:12.542Z,14.90
2022-10-25T16:56:44.199Z,14.90
2022-10-25T16:58:15.937Z,14.90
2022-10-25T16:59:47.558Z,14.90
2022-10-25T17:01:34.223Z,14.90
2022-10-25T17:03:06.656Z,14.80
2022-10-25T17:04:38.277Z,14.80
2022-10-25T17:06:28.699Z,14.80
2022-10-25T17:08:00.745Z,14.80
2022-10-25T17:09:32.368Z,14.80
2022-10-25T17:11:04.008Z,14.80
2022-10-25T17:12:42.918Z,14.70
2022-10-25T17:14:14.663Z,14.70
2022-10-25T17:15:46.276Z,14.70
2022-10-25T17:17:18.103Z,14.70
2022-10-25T17:18:49.767Z,14.70
2022-10-25T17:20:21.688Z,14.70
2022-10-25T17:21:53.528Z,14.60
2022-10-25T17:23:25.237Z,14.60
2022-10-25T17:24:56.838Z,14.60
2022-10-25T17:26:28.680Z,14.60
2022-10-25T17:28:00.380Z,14.50
2022-10-25T17:29:32.064Z,14.50
2022-10-25T17:31:08.853Z,14.50
2022-10-25T17:32:40.493Z,14.50
2022-10-25T17:34:12.149Z,14.40
2022-10-25T17:35:46.120Z,14.40
2022-10-25T17:37:17.813Z,14.40
2022-10-25T17:38:50.566Z,14.40
2022-10-25T17:40:22.261Z,14.30
2022-10-25T17:41:53.884Z,14.30
2022-10-25T17:43:25.568Z,14.30
2022-10-25T17:44:57.250Z,14.30
2022-10-25T17:46:30.659Z,14.30
2022-10-25T17:48:03.510Z,14.30
2022-10-25T17:49:35.243Z,14.30
2022-10-25T17:51:09.171Z,14.20
2022-10-25T17:52:42.167Z,14.20
2022-10-25T17:54:14.738Z,14.30
2022-10-25T17:55:46.360Z,14.20
2022-10-25T17:57:18.030Z,14.20
2022-10-25T17:58:50.677Z,14.20
2022-10-25T18:00:22.494Z,14.20
2022-10-25T18:01:54.710Z,14.20
2022-10-25T18:03:26.469Z,14.10
2022-10-25T18:06:50.034Z,14.00
2022-10-25T18:08:21.809Z,14.00
2022-10-25T18:09:53.546Z,14.00
2022-10-25T18:11:26.996Z,14.00
2022-10-25T18:12:58.609Z,14.00
2022-10-25T18:14:31.360Z,13.90
2022-10-25T18:16:07.757Z,14.00
2022-10-25T18:17:40.709Z,13.90
2022-10-25T18:19:14.494Z,13.90
2022-10-25T18:20:49.202Z,13.90
2022-10-25T18:22:23.401Z,13.80
2022-10-25T18:23:56.765Z,13.80
2022-10-25T18:25:28.468Z,13.80
2022-10-25T18:27:00.196Z,13.80
2022-10-25T18:28:33.201Z,13.70
2022-10-25T18:30:05.463Z,13.70
2022-10-25T18:31:37.155Z,13.70
2022-10-25T18:33:13.731Z,13.70
2022-10-25T18:34:45.405Z,13.60
2022-10-25T18:36:19.571Z,13.60
2022-10-25T18:37:51.622Z,13.60
2022-10-25T18:39:23.540Z,13.70
2022-10-25T18:40:55.402Z,13.60
2022-10-25T18:42:27.073Z,13.50
2022-10-25T18:43:59.421Z,13.50
2022-10-25T18:45:31.155Z,13.50
2022-10-25T18:47:02.750Z,13.50
2022-10-25T18:48:34.404Z,13.50
2022-10-25T18:50:06.534Z,13.50
2022-10-25T18:51:38.868Z,13.50
2022-10-25T18:53:10.568Z,13.50
2022-10-25T18:54:42.285Z,13.40
2022-10-25T18:56:19.589Z,13.40
2022-10-25T18:57:54.684Z,13.40
2022-10-25T18:59:28.396Z,13.40
2022-10-25T19:01:08.187Z,13.40
2022-10-25T19:02:40.446Z,13.40
2022-10-25T19:04:12.259Z,13.30
2022-10-25T19:05:44.190Z,13.40
2022-10-25T19:07:15.922Z,13.30
2022-10-25T19:08:49.225Z,13.30
2022-10-25T19:10:20.963Z,13.30
2022-10-25T19:11:52.669Z,13.30
2022-10-25T19:13:24.382Z,13.20
2022-10-25T19:14:56.083Z,13.20
2022-10-25T19:16:27.729Z,13.30
2022-10-25T19:17:59.658Z,13.20
2022-10-25T19:19:31.295Z,13.20
2022-10-25T19:21:05.702Z,13.20
2022-10-25T19:22:37.352Z,13.10
2022-10-25T19:24:11.767Z,13.10
2022-10-25T19:25:43.460Z,13.10
2022-10-25T19:27:15.899Z,13.20
2022-10-25T19:28:54.511Z,13.20
2022-10-25T19:30:26.426Z,13.10
2022-10-25T19:31:58.108Z,13.10
2022-10-25T19:33:29.722Z,13.10
2022-10-25T19:35:01.342Z,13.10
2022-10-25T19:36:33.515Z,13.10
2022-10-25T19:38:05.200Z,13.00
2022-10-25T19:39:40.430Z,13.00
2022-10-25T19:41:16.203Z,13.00
2022-10-25T19:42:48.001Z,13.00
2022-10-25T19:44:19.737Z,13.00
2022-10-25T19:45:51.417Z,13.00
2022-10-25T19:47:23.061Z,13.00
2022-10-25T19:48:56.132Z,13.00
2022-10-25T19:50:28.736Z,12.90
2022-10-25T19:52:00.463Z,12.90
2022-10-25T19:53:32.564Z,12.90
2022-10-25T19:55:08.365Z,12.90
2022-10-25T19:56:40.218Z,12.90
2022-10-25T19:58:11.949Z,12.90
2022-10-25T19:59:43.679Z,12.90
2022-10-25T20:01:18.728Z,12.80
2022-10-25T20:02:50.480Z,12.80
2022-10-25T20:04:22.245Z,12.80
2022-10-25T20:05:58.840Z,12.80
2022-10-25T20:07:30.556Z,12.80
2022-10-25T20:09:02.420Z,12.80
2022-10-25T20:10:34.090Z,12.80
2022-10-25T20:12:05.803Z,12.80
2022-10-25T20:13:38.071Z,12.80
2022-10-25T20:16:46.710Z,12.80
2022-10-25T20:18:23.178Z,12.70
2022-10-25T20:19:54.900Z,12.70
2022-10-25T20:21:30.792Z,12.70
2022-10-25T20:23:02.432Z,12.70
2022-10-25T20:24:34.115Z,12.70
2022-10-25T20:26:14.186Z,12.70
2022-10-25T20:27:46.245Z,12.70
2022-10-25T20:29:21.528Z,12.60
2022-10-25T20:30:53.512Z,12.60
2022-10-25T20:32:25.211Z,12.60
2022-10-25T20:33:57.390Z,12.60
2022-10-25T20:35:29.163Z,12.60
2022-10-25T20:37:03.994Z,12.60
2022-10-25T20:38:36.991Z,12.60
2022-10-25T20:40:09.168Z,12.60
2022-10-25T20:41:40.979Z,12.60
2022-10-25T20:43:12.770Z,12.60
2022-10-25T20:44:44.542Z,12.60
2022-10-25T20:46:17.114Z,12.60
2022-10-25T20:47:51.588Z,12.60
2022-10-25T20:49:23.367Z,12.50
2022-10-25T20:50:55.114Z,12.50
2022-10-25T20:52:26.776Z,12.50
2022-10-25T20:53:58.598Z,12.50
2022-10-25T20:55:30.311Z,12.50
2022-10-25T20:57:01.976Z,12.50
2022-10-25T20:58:34.333Z,12.50